Time;durP1;ratioP1;P1;durP2;ratioP2;P2;SDS_P1;SDS_P2;PMS_P1;PMS_P2;Temp;Humidity;BMP_temperature;BMP_pressure;BME280_temperature;BME280_humidity;BME280_pressure;Samples;Min_cycle;Max_cycle;Signal;HPM_P1;HPM_P2
2021/08/22 00:00:56;;;;;;;28.00;24.60;;;;;;;14.80;86.04;99241.41;111551;1192;63969;-82
2021/08/22 00:03:23;;;;;;;26.40;23.30;;;;;;;14.80;86.23;99243.95;111558;1199;61050;-82
2021/08/22 00:05:50;;;;;;;26.60;23.90;;;;;;;14.81;86.24;99240.06;111562;1192;61067;-83
2021/08/22 00:08:17;;;;;;;28.80;23.70;;;;;;;14.81;86.35;99237.60;111604;1199;65707;-82
2021/08/22 00:10:43;;;;;;;25.20;22.40;;;;;;;14.80;86.42;99238.59;111605;1199;60987;-84
2021/08/22 00:13:10;;;;;;;27.50;24.70;;;;;;;14.80;86.42;99244.52;111543;1192;63978;-81
2021/08/22 00:15:37;;;;;;;29.70;25.20;;;;;;;14.74;86.68;99247.98;111567;1199;61089;-83
2021/08/22 00:18:03;;;;;;;26.30;23.50;;;;;;;14.60;87.05;99248.20;111429;1194;61063;-82
2021/08/22 00:20:30;;;;;;;27.20;24.30;;;;;;;14.48;86.94;99248.21;111543;1200;74522;-83
2021/08/22 00:22:57;;;;;;;27.60;24.80;;;;;;;14.47;87.15;99246.67;111572;1199;61066;-83
2021/08/22 00:25:23;;;;;;;26.90;24.00;;;;;;;14.49;87.38;99245.05;111530;1200;64022;-83
2021/08/22 00:27:50;;;;;;;27.40;24.60;;;;;;;14.50;87.42;99240.02;111522;1192;61174;-83
2021/08/22 00:30:16;;;;;;;25.40;22.80;;;;;;;14.48;87.46;99237.45;111535;1193;61043;-82
2021/08/22 00:32:43;;;;;;;28.30;23.60;;;;;;;14.47;87.59;99235.37;111549;1200;64580;-82
2021/08/22 00:35:10;;;;;;;28.20;25.30;;;;;;;14.47;87.57;99236.50;111586;1200;61059;-80
2021/08/22 00:37:38;;;;;;;27.80;25.10;;;;;;;14.46;87.50;99240.52;111533;1199;72638;-81
2021/08/22 00:40:05;;;;;;;25.80;23.30;;;;;;;14.46;87.47;99239.09;111499;1193;61042;-81
2021/08/22 00:42:36;;;;;;;24.60;22.00;;;;;;;14.46;87.57;99237.84;111522;1200;61126;-81
2021/08/22 00:45:05;;;;;;;24.30;21.90;;;;;;;14.48;87.61;99235.86;111613;1199;65973;-81
2021/08/22 00:47:32;;;;;;;24.00;21.70;;;;;;;14.49;87.43;99237.35;111557;1199;60986;-81
2021/08/22 00:49:59;;;;;;;24.30;21.90;;;;;;;14.47;87.64;99234.30;111571;1200;63923;-81
2021/08/22 00:52:32;;;;;;;26.10;22.30;;;;;;;14.45;87.69;99234.91;111520;1200;61047;-81
2021/08/22 00:55:04;;;;;;;23.70;21.30;;;;;;;14.42;87.81;99234.36;111543;1199;61056;-81
2021/08/22 00:57:33;;;;;;;23.20;20.70;;;;;;;14.42;87.77;99231.55;111568;1199;64649;-81
2021/08/22 01:00:10;;;;;;;23.10;20.10;;;;;;;14.43;87.93;99233.25;111561;1199;61060;-81
2021/08/22 01:02:57;;;;;;;23.10;20.80;;;;;;;14.46;87.85;99234.44;111530;1200;63769;-81
2021/08/22 01:05:45;;;;;;;22.40;20.00;;;;;;;14.46;87.62;99234.80;111472;1199;61059;-81
2021/08/22 01:08:17;;;;;;;22.40;20.00;;;;;;;14.44;87.68;99235.45;111533;1193;61015;-81
2021/08/22 01:10:45;;;;;;;22.50;20.10;;;;;;;14.44;87.75;99232.66;111564;1200;65976;-81
2021/08/22 01:13:18;;;;;;;23.40;21.00;;;;;;;14.43;87.50;99231.99;111510;1200;61037;-82
2021/08/22 01:15:48;;;;;;;23.80;21.20;;;;;;;14.41;87.43;99232.48;111551;1200;63784;-81
2021/08/22 01:18:20;;;;;;;24.40;21.90;;;;;;;14.37;87.24;99234.23;111510;1200;61645;-81
2021/08/22 01:21:10;;;;;;;24.00;21.70;;;;;;;14.34;87.34;99233.46;111563;1200;61050;-81
2021/08/22 01:24:02;;;;;;;23.10;20.80;;;;;;;14.28;87.29;99235.65;111558;1200;64724;-82
2021/08/22 01:26:31;;;;;;;23.20;20.90;;;;;;;14.21;87.31;99236.56;111516;1199;61084;-81
2021/08/22 01:29:00;;;;;;;23.00;20.90;;;;;;;14.16;87.27;99237.69;111568;1199;63760;-81
2021/08/22 01:31:32;;;;;;;21.60;19.70;;;;;;;14.14;87.43;99234.59;111567;1193;61073;-81
2021/08/22 01:34:01;;;;;;;22.40;20.20;;;;;;;14.15;87.53;99237.93;111596;1194;61066;-81
2021/08/22 01:36:28;;;;;;;23.20;20.70;;;;;;;14.12;87.70;99229.98;111572;1200;64632;-81
2021/08/22 01:38:56;;;;;;;20.20;18.10;;;;;;;14.11;87.84;99227.03;111565;1199;60938;-81
2021/08/22 01:41:24;;;;;;;20.60;18.50;;;;;;;14.10;88.00;99226.02;111568;1199;62362;-81
2021/08/22 01:43:53;;;;;;;22.40;19.90;;;;;;;14.06;88.02;99226.84;111485;1199;61182;-82
2021/08/22 01:46:22;;;;;;;22.70;20.40;;;;;;;14.01;88.03;99225.23;111535;1193;60989;-81
2021/08/22 01:48:51;;;;;;;19.60;17.70;;;;;;;13.99;88.15;99222.77;111587;1199;66238;-81
2021/08/22 01:51:18;;;;;;;20.20;18.10;;;;;;;13.97;88.08;99222.20;111552;1199;61073;-81
2021/08/22 01:53:45;;;;;;;19.20;17.30;;;;;;;13.95;88.05;99225.35;111559;1199;71689;-81
2021/08/22 01:56:12;;;;;;;19.50;17.60;;;;;;;13.90;88.04;99226.30;111541;1192;61063;-80
2021/08/22 01:58:38;;;;;;;16.70;15.10;;;;;;;13.88;88.22;99224.66;111542;1193;61076;-81
2021/08/22 02:01:07;;;;;;;17.80;16.10;;;;;;;13.86;88.08;99223.73;111519;1193;65650;-81
2021/08/22 02:03:50;;;;;;;20.60;18.60;;;;;;;13.83;88.15;99225.95;111566;1199;61043;-81
2021/08/22 02:06:47;;;;;;;19.80;17.90;;;;;;;13.83;88.58;99221.52;111503;1199;62588;-81
2021/08/22 02:09:17;;;;;;;19.30;17.50;;;;;;;13.85;88.82;99221.68;111480;1199;61074;-81
2021/08/22 02:11:50;;;;;;;19.20;17.20;;;;;;;13.88;88.58;99219.84;111546;1199;60986;-81
2021/08/22 02:14:20;;;;;;;20.40;17.30;;;;;;;13.89;88.40;99215.65;111559;1199;64531;-81
2021/08/22 02:16:51;;;;;;;19.90;17.80;;;;;;;13.89;88.46;99216.34;111565;1199;60970;-81
2021/08/22 02:19:19;;;;;;;19.90;18.00;;;;;;;13.88;88.37;99211.81;111588;1199;62785;-82
2021/08/22 02:21:46;;;;;;;21.60;19.30;;;;;;;13.85;88.38;99209.38;111531;1193;61015;-81
2021/08/22 02:24:14;;;;;;;19.60;17.70;;;;;;;13.79;88.37;99211.06;111529;1199;60992;-82
2021/08/22 02:26:41;;;;;;;19.40;17.60;;;;;;;13.73;88.27;99209.77;111509;1199;65813;-81
2021/08/22 02:29:09;;;;;;;17.30;15.70;;;;;;;13.69;88.39;99211.69;111549;1199;60925;-82
2021/08/22 02:31:36;;;;;;;18.90;17.00;;;;;;;13.64;88.33;99212.43;111393;1199;62607;-81
2021/08/22 02:34:02;;;;;;;18.60;16.70;;;;;;;13.54;88.25;99209.43;111335;1193;61111;-81
2021/08/22 02:36:29;;;;;;;22.30;20.20;;;;;;;13.49;88.53;99209.95;111571;1199;61084;-81
2021/08/22 02:38:56;;;;;;;20.60;18.50;;;;;;;13.48;88.74;99214.31;111508;1199;64343;-81
2021/08/22 02:41:23;;;;;;;22.40;20.00;;;;;;;13.51;88.98;99211.61;111362;1196;61081;-81
2021/08/22 02:43:50;;;;;;;19.70;17.70;;;;;;;13.53;89.12;99210.73;111529;1199;62599;-81
2021/08/22 02:46:17;;;;;;;20.10;18.00;;;;;;;13.54;88.88;99204.40;111500;1199;60964;-81
2021/08/22 02:48:43;;;;;;;19.10;17.20;;;;;;;13.54;88.90;99203.52;111566;1199;61088;-81
2021/08/22 02:51:10;;;;;;;20.50;18.50;;;;;;;13.54;88.82;99203.16;111501;1199;66226;-81
2021/08/22 02:53:37;;;;;;;20.00;17.90;;;;;;;13.52;88.76;99202.94;111545;1192;61020;-81
2021/08/22 02:56:04;;;;;;;19.90;17.80;;;;;;;13.47;88.67;99200.85;111395;1193;62471;-81
2021/08/22 02:58:31;;;;;;;20.00;18.00;;;;;;;13.44;88.76;99196.80;111577;1199;61095;-81
2021/08/22 03:00:57;;;;;;;21.00;18.80;;;;;;;13.41;88.76;99193.23;111565;1199;61063;-83
2021/08/22 03:03:24;;;;;;;19.00;17.10;;;;;;;13.40;88.76;99195.98;111466;1199;65712;-82
2021/08/22 03:05:51;;;;;;;19.00;17.10;;;;;;;13.39;88.77;99195.54;111533;1199;61050;-82
2021/08/22 03:08:17;;;;;;;18.10;16.40;;;;;;;13.36;88.74;99201.62;111526;1199;64104;-81
2021/08/22 03:10:45;;;;;;;21.50;17.40;;;;;;;13.34;88.66;99197.71;111373;1200;61102;-81
2021/08/22 03:13:13;;;;;;;18.10;16.40;;;;;;;13.32;88.85;99196.40;111550;1199;61717;-81
2021/08/22 03:15:39;;;;;;;19.60;17.70;;;;;;;13.34;88.90;99196.09;111524;1199;64613;-81
2021/08/22 03:18:06;;;;;;;17.60;15.90;;;;;;;13.36;88.94;99193.77;111557;1199;60989;-83
2021/08/22 03:20:33;;;;;;;20.10;18.00;;;;;;;13.37;88.74;99194.60;111403;1199;62738;-83
2021/08/22 03:22:59;;;;;;;20.80;18.70;;;;;;;13.38;88.73;99192.04;111568;1193;60992;-81
2021/08/22 03:25:26;;;;;;;22.90;20.80;;;;;;;13.37;88.84;99185.17;111533;1193;61002;-80
2021/08/22 03:27:52;;;;;;;20.50;18.30;;;;;;;13.37;88.87;99180.52;111514;1199;64570;-83
2021/08/22 03:30:19;;;;;;;19.80;17.80;;;;;;;13.36;88.90;99180.40;111388;1195;61075;-82
2021/08/22 03:32:46;;;;;;;20.70;18.70;;;;;;;13.35;88.93;99181.35;111479;1199;63787;-83
2021/08/22 03:35:13;;;;;;;20.60;18.40;;;;;;;13.39;89.19;99184.67;111562;1192;61066;-83
2021/08/22 03:37:39;;;;;;;20.80;18.80;;;;;;;13.41;89.13;99184.31;111566;1194;61063;-83
2021/08/22 03:40:06;;;;;;;20.30;18.30;;;;;;;13.44;89.07;99181.77;111570;1199;64592;-83
2021/08/22 03:42:33;;;;;;;20.00;18.00;;;;;;;13.47;89.26;99179.98;111589;1199;61073;-81
2021/08/22 03:45:00;;;;;;;19.40;17.40;;;;;;;13.50;89.39;99178.48;111556;1199;62428;-81
2021/08/22 03:47:27;;;;;;;19.40;17.60;;;;;;;13.53;89.45;99179.33;111564;1199;61054;-81
2021/08/22 03:49:53;;;;;;;19.00;17.10;;;;;;;13.56;89.42;99181.73;111519;1199;61072;-81
2021/08/22 03:52:20;;;;;;;19.80;17.80;;;;;;;13.61;89.31;99183.70;111532;1199;64628;-81
2021/08/22 03:54:46;;;;;;;21.40;19.30;;;;;;;13.67;89.36;99183.78;111380;1199;61063;-83
2021/08/22 03:57:13;;;;;;;20.50;18.60;;;;;;;13.71;89.34;99185.63;111517;1199;63725;-80
2021/08/22 03:59:40;;;;;;;22.10;19.70;;;;;;;13.75;89.35;99187.11;111491;1193;61056;-80
2021/08/22 04:02:07;;;;;;;22.60;20.20;;;;;;;13.77;89.36;99188.90;111540;1192;61065;-80
2021/08/22 04:04:33;;;;;;;21.10;19.10;;;;;;;13.83;89.41;99192.34;111545;1199;64623;-80
2021/08/22 04:07:01;;;;;;;27.10;24.40;;;;;;;13.90;89.34;99198.43;111567;1199;60957;-82
2021/08/22 04:09:30;;;;;;;22.90;20.60;;;;;;;13.96;89.15;99199.71;111498;1192;62592;-82
2021/08/22 04:11:58;;;;;;;26.20;23.70;;;;;;;14.11;89.15;99201.45;111351;1195;61030;-82
2021/08/22 04:14:25;;;;;;;22.40;20.30;;;;;;;14.46;88.46;99204.27;111582;1193;61069;-80
2021/08/22 04:16:51;;;;;;;24.30;22.00;;;;;;;14.80;88.01;99194.58;111384;1200;65812;-82
2021/08/22 04:19:18;;;;;;;23.80;21.60;;;;;;;15.08;87.41;99196.33;111528;1199;61105;-83
2021/08/22 04:21:45;;;;;;;23.60;21.20;;;;;;;15.31;86.77;99190.33;111502;1199;63942;-81
2021/08/22 04:24:12;;;;;;;27.30;24.60;;;;;;;15.41;86.23;99189.54;111308;1197;61108;-81
2021/08/22 04:26:40;;;;;;;23.20;21.00;;;;;;;15.62;85.86;99187.79;111556;1199;61075;-81
2021/08/22 04:29:10;;;;;;;21.60;19.50;;;;;;;15.88;85.15;99188.21;111527;1199;65844;-81
2021/08/22 04:31:37;;;;;;;23.30;20.90;;;;;;;15.89;85.13;99187.97;111566;1199;60964;-81
2021/08/22 04:34:04;;;;;;;22.40;20.00;;;;;;;15.84;85.06;99187.69;111479;1192;62410;-81
2021/08/22 04:36:31;;;;;;;26.50;23.70;;;;;;;15.73;85.01;99187.42;111580;1199;61201;-81
2021/08/22 04:38:57;;;;;;;23.80;21.20;;;;;;;15.70;84.96;99188.23;111567;1193;60957;-81
2021/08/22 04:41:24;;;;;;;21.00;19.10;;;;;;;15.76;84.75;99189.66;111397;1199;64628;-82
2021/08/22 04:43:54;;;;;;;18.90;17.00;;;;;;;16.16;83.70;99186.93;111516;1199;61059;-82
2021/08/22 04:46:21;;;;;;;19.60;17.60;;;;;;;16.51;82.71;99181.34;111501;1199;64773;-82
2021/08/22 04:48:48;;;;;;;19.70;17.90;;;;;;;16.75;82.24;99181.00;111543;1193;61072;-81
2021/08/22 04:51:15;;;;;;;19.00;17.20;;;;;;;16.97;81.87;99176.39;111603;1199;60999;-81
2021/08/22 04:53:42;;;;;;;17.80;16.10;;;;;;;17.26;81.36;99170.50;111552;1199;65731;-80
2021/08/22 04:56:09;;;;;;;18.90;17.00;;;;;;;17.58;80.63;99168.22;111547;1193;61076;-80
2021/08/22 04:58:36;;;;;;;16.70;15.20;;;;;;;17.90;80.15;99168.84;111335;1193;63994;-80
2021/08/22 05:01:03;;;;;;;16.60;15.00;;;;;;;18.25;79.70;99167.14;111556;1193;61078;-80
2021/08/22 05:03:30;;;;;;;16.60;15.10;;;;;;;18.60;79.08;99161.94;111522;1195;60996;-81
2021/08/22 05:05:57;;;;;;;15.60;14.20;;;;;;;18.88;78.00;99157.23;111520;1192;65372;-80
2021/08/22 05:08:23;;;;;;;15.00;13.70;;;;;;;19.11;77.37;99160.59;111513;1192;61030;-81
2021/08/22 05:10:52;;;;;;;14.50;13.20;;;;;;;19.33;76.62;99163.27;111494;1199;63640;-81
2021/08/22 05:13:19;;;;;;;14.30;13.10;;;;;;;19.55;75.97;99164.24;111526;1193;61043;-81
2021/08/22 05:15:46;;;;;;;14.30;13.00;;;;;;;19.62;75.50;99166.40;111562;1192;61056;-83
2021/08/22 05:18:12;;;;;;;14.80;13.50;;;;;;;19.75;75.11;99164.91;111553;1199;64623;-81
2021/08/22 05:20:39;;;;;;;13.50;12.20;;;;;;;19.99;74.20;99163.80;111516;1199;60958;-81
2021/08/22 05:23:06;;;;;;;14.00;12.80;;;;;;;20.16;73.78;99164.38;111461;1199;64805;-81
2021/08/22 05:25:32;;;;;;;14.00;12.60;;;;;;;20.37;73.38;99163.59;111532;1199;61028;-81
2021/08/22 05:27:59;;;;;;;13.20;12.10;;;;;;;20.57;72.64;99166.02;111527;1192;61067;-81
2021/08/22 05:30:25;;;;;;;12.70;11.50;;;;;;;20.67;72.16;99165.14;111538;1199;64633;-82
2021/08/22 05:32:52;;;;;;;12.90;11.70;;;;;;;20.76;71.69;99163.96;111569;1199;61069;-83
2021/08/22 05:35:19;;;;;;;12.40;11.30;;;;;;;20.92;71.14;99161.54;111525;1192;63775;-81
2021/08/22 05:37:45;;;;;;;12.80;11.70;;;;;;;21.08;70.46;99159.28;111558;1193;61073;-83
2021/08/22 05:40:12;;;;;;;12.50;11.20;;;;;;;21.17;69.99;99163.05;111559;1193;61158;-83
2021/08/22 05:42:39;;;;;;;13.20;12.20;;;;;;;21.26;69.75;99163.08;111519;1199;64424;-82
2021/08/22 05:45:06;;;;;;;13.50;12.30;;;;;;;21.39;69.69;99167.55;111338;1195;60951;-82
2021/08/22 05:47:33;;;;;;;13.90;12.70;;;;;;;21.52;68.98;99160.50;111506;1192;62582;-82
2021/08/22 05:49:59;;;;;;;13.90;12.50;;;;;;;21.60;68.74;99162.33;111536;1199;61079;-83
2021/08/22 05:52:26;;;;;;;13.00;11.70;;;;;;;21.63;68.46;99159.41;111591;1197;61072;-82
2021/08/22 05:54:53;;;;;;;14.70;13.40;;;;;;;21.69;68.45;99159.13;111544;1199;66046;-82
2021/08/22 05:57:19;;;;;;;14.80;13.50;;;;;;;21.70;67.64;99159.06;111555;1199;61182;-82
2021/08/22 05:59:46;;;;;;;13.70;12.50;;;;;;;21.70;67.65;99158.12;111533;1199;63984;-82
2021/08/22 06:02:13;;;;;;;13.40;12.20;;;;;;;21.75;67.76;99157.23;111491;1192;61139;-82
2021/08/22 06:04:39;;;;;;;13.40;12.10;;;;;;;21.83;67.41;99155.47;111558;1193;61018;-82
2021/08/22 06:07:07;;;;;;;12.80;11.60;;;;;;;21.85;67.14;99153.47;111543;1199;66040;-82
2021/08/22 06:09:33;;;;;;;13.20;12.10;;;;;;;21.92;67.13;99149.56;111556;1199;61027;-82
2021/08/22 06:12:00;;;;;;;12.50;11.50;;;;;;;21.94;66.68;99144.43;111487;1199;63627;-82
2021/08/22 06:14:27;;;;;;;12.20;11.20;;;;;;;21.99;66.39;99142.83;111546;1199;61190;-83
2021/08/22 06:16:53;;;;;;;13.30;12.10;;;;;;;22.03;66.47;99145.95;111560;1192;61076;-82
2021/08/22 06:19:20;;;;;;;12.80;11.70;;;;;;;22.09;66.12;99145.33;111567;1199;65958;-82
2021/08/22 06:21:47;;;;;;;12.30;11.30;;;;;;;22.18;65.90;99142.17;111535;1199;60987;-81
2021/08/22 06:24:13;;;;;;;12.80;11.60;;;;;;;22.08;65.61;99143.80;111547;1199;62714;-81
2021/08/22 06:26:40;;;;;;;12.90;11.80;;;;;;;22.00;65.79;99145.70;111517;1199;61053;-82
2021/08/22 06:29:06;;;;;;;12.50;11.40;;;;;;;22.02;65.97;99151.28;111501;1194;60960;-81
2021/08/22 06:31:33;;;;;;;13.60;12.50;;;;;;;22.02;65.93;99153.45;111554;1199;64341;-82
2021/08/22 06:33:59;;;;;;;12.90;11.70;;;;;;;22.04;66.00;99156.02;111541;1199;60983;-82
2021/08/22 06:36:26;;;;;;;13.50;12.40;;;;;;;22.08;66.12;99152.98;111574;1199;62621;-82
2021/08/22 06:38:53;;;;;;;13.00;11.80;;;;;;;22.05;65.89;99151.31;111377;1199;60980;-85
2021/08/22 06:41:20;;;;;;;12.60;11.60;;;;;;;22.03;66.06;99153.41;111632;1199;61107;-84
2021/08/22 06:43:46;;;;;;;14.00;12.80;;;;;;;22.05;66.10;99157.81;111573;1199;65978;-83
2021/08/22 06:46:13;;;;;;;13.30;12.10;;;;;;;22.13;65.79;99152.95;111439;1195;61093;-83
2021/08/22 06:48:39;;;;;;;13.50;12.20;;;;;;;22.18;65.88;99153.20;111542;1199;63927;-83
2021/08/22 06:51:06;;;;;;;13.20;11.90;;;;;;;22.20;65.80;99150.03;111524;1195;61066;-83
2021/08/22 06:53:33;;;;;;;14.10;12.70;;;;;;;22.24;66.02;99152.48;111481;1193;61072;-82
2021/08/22 06:55:59;;;;;;;13.70;12.60;;;;;;;22.14;66.04;99155.91;111549;1199;66900;-83
2021/08/22 06:58:26;;;;;;;14.30;13.00;;;;;;;22.03;66.33;99161.70;111528;1199;61021;-82
2021/08/22 07:00:53;;;;;;;15.10;13.80;;;;;;;21.94;66.79;99158.95;111434;1200;63981;-83
2021/08/22 07:03:19;;;;;;;14.80;13.40;;;;;;;21.85;66.78;99160.42;111556;1195;61092;-82
2021/08/22 07:05:47;;;;;;;13.30;12.10;;;;;;;21.80;67.05;99161.98;111586;1199;61082;-82
2021/08/22 07:08:13;;;;;;;13.60;12.30;;;;;;;21.81;67.37;99161.81;111526;1192;65972;-82
2021/08/22 07:10:41;;;;;;;14.80;13.60;;;;;;;21.78;67.35;99161.58;111560;1199;61031;-82
2021/08/22 07:13:08;;;;;;;13.20;11.90;;;;;;;21.72;67.36;99162.29;111527;1199;62324;-82
2021/08/22 07:15:35;;;;;;;13.50;12.30;;;;;;;21.65;67.36;99159.61;111510;1199;60986;-82
2021/08/22 07:18:02;;;;;;;13.40;12.10;;;;;;;21.61;67.62;99164.19;111395;1194;61088;-82
2021/08/22 07:20:28;;;;;;;12.10;11.10;;;;;;;21.59;67.46;99160.62;111527;1199;65946;-82
2021/08/22 07:22:55;;;;;;;12.30;11.30;;;;;;;21.59;67.93;99164.27;111586;1199;68861;-82
2021/08/22 07:25:22;;;;;;;13.70;12.60;;;;;;;21.71;68.54;99163.98;111547;1199;64640;-82
2021/08/22 07:27:48;;;;;;;14.40;12.90;;;;;;;21.86;68.34;99161.46;111557;1193;60976;-82
2021/08/22 07:30:16;;;;;;;12.90;11.80;;;;;;;21.87;67.99;99160.79;111501;1192;61082;-82
2021/08/22 07:32:43;;;;;;;13.10;12.00;;;;;;;21.85;67.70;99157.41;111544;1200;65835;-82
2021/08/22 07:35:10;;;;;;;12.60;11.50;;;;;;;21.81;67.83;99159.04;111515;1199;60953;-82
2021/08/22 07:37:36;;;;;;;12.50;11.40;;;;;;;21.87;67.82;99160.17;111530;1199;72530;-82
2021/08/22 07:40:05;;;;;;;12.90;11.60;;;;;;;21.91;67.89;99163.94;111507;1199;60969;-81
2021/08/22 07:42:31;;;;;;;12.30;11.30;;;;;;;21.99;68.17;99168.65;111542;1200;61086;-82
2021/08/22 07:44:59;;;;;;;11.90;10.90;;;;;;;22.09;67.82;99167.20;111552;1199;65967;-83
2021/08/22 07:47:25;;;;;;;12.30;11.20;;;;;;;22.21;67.51;99168.76;111540;1199;60986;-83
2021/08/22 07:49:52;;;;;;;11.60;10.60;;;;;;;22.36;67.59;99167.40;111553;1199;63988;-81
2021/08/22 07:52:22;;;;;;;11.80;10.60;;;;;;;22.48;67.23;99166.58;111439;1195;61123;-81
2021/08/22 07:54:49;;;;;;;11.20;10.30;;;;;;;22.65;67.66;99162.45;111580;1194;61146;-81
2021/08/22 07:57:19;;;;;;;11.40;10.40;;;;;;;22.83;67.23;99162.04;111611;1199;64596;-81
2021/08/22 07:59:46;;;;;;;11.30;10.20;;;;;;;22.92;67.06;99161.69;111542;1200;61078;-81
2021/08/22 08:02:14;;;;;;;12.40;11.30;;;;;;;23.03;66.95;99161.34;111477;1200;63792;-82
2021/08/22 08:04:40;;;;;;;11.20;10.20;;;;;;;23.08;66.44;99154.83;111543;1200;61085;-82
2021/08/22 08:07:07;;;;;;;11.90;10.90;;;;;;;23.08;66.13;99157.25;111553;1201;61069;-82
2021/08/22 08:09:34;;;;;;;12.20;11.20;;;;;;;23.11;66.22;99159.88;111535;1200;64606;-82
2021/08/22 08:12:00;;;;;;;11.30;10.40;;;;;;;23.17;66.12;99161.57;111522;1200;61056;-82
2021/08/22 08:14:27;;;;;;;10.10;9.30;;;;;;;23.23;65.94;99161.94;111461;1200;64126;-82
2021/08/22 08:16:54;;;;;;;9.70;8.90;;;;;;;23.29;65.84;99153.06;111518;1202;61060;-82
2021/08/22 08:19:20;;;;;;;9.60;8.70;;;;;;;23.35;66.05;99148.91;111599;1195;60987;-81
2021/08/22 08:21:48;;;;;;;10.50;9.60;;;;;;;23.48;66.16;99150.63;111531;1200;64350;-81
2021/08/22 08:24:14;;;;;;;9.80;9.00;;;;;;;23.63;66.34;99151.09;111569;1200;61005;-81
2021/08/22 08:26:41;;;;;;;10.30;9.30;;;;;;;23.74;66.25;99149.44;111509;1199;64943;-81
2021/08/22 08:29:08;;;;;;;10.90;9.70;;;;;;;23.87;65.86;99149.14;111536;1195;61082;-81
2021/08/22 08:31:35;;;;;;;10.30;9.30;;;;;;;23.94;65.16;99143.92;111538;1200;60950;-81
2021/08/22 08:34:03;;;;;;;9.90;9.00;;;;;;;23.96;64.75;99142.74;111534;1200;66932;-81
2021/08/22 08:36:30;;;;;;;9.30;8.50;;;;;;;24.01;64.35;99146.67;111567;1200;61069;-81
2021/08/22 08:38:57;;;;;;;9.90;9.10;;;;;;;24.09;64.37;99142.68;111551;1200;63627;-82
2021/08/22 08:41:24;;;;;;;10.00;9.10;;;;;;;24.16;63.99;99140.91;111431;1201;60993;-83
2021/08/22 08:43:53;;;;;;;10.30;9.40;;;;;;;24.18;63.78;99138.71;111558;1197;61075;-82
2021/08/22 08:46:31;;;;;;;10.20;9.30;;;;;;;24.22;63.79;99137.27;111582;1200;65976;-82
2021/08/22 08:49:04;;;;;;;8.40;7.60;;;;;;;24.23;63.07;99137.11;111555;1200;60992;-83
2021/08/22 08:51:49;;;;;;;8.40;7.70;;;;;;;24.25;62.55;99138.60;111517;1192;63751;-81
2021/08/22 08:54:27;;;;;;;8.00;7.30;;;;;;;24.27;61.99;99135.45;111523;1200;61060;-82
2021/08/22 08:56:58;;;;;;;9.70;8.60;;;;;;;24.31;62.32;99131.77;111563;1197;60981;-81
2021/08/22 08:59:24;;;;;;;9.20;8.40;;;;;;;24.41;62.52;99129.39;111495;1202;66776;-82
2021/08/22 09:01:58;;;;;;;8.30;7.60;;;;;;;24.50;62.67;99129.14;111579;1200;61159;-82
2021/08/22 09:04:26;;;;;;;8.50;7.70;;;;;;;24.62;62.17;99132.57;111514;1201;64193;-82
2021/08/22 09:06:59;;;;;;;8.40;7.70;;;;;;;24.71;61.32;99130.75;111516;1200;61074;-81
2021/08/22 09:09:59;;;;;;;8.60;7.90;;;;;;;24.81;60.95;99136.71;111534;1192;61002;-81
2021/08/22 09:12:57;;;;;;;8.80;8.00;;;;;;;24.91;60.77;99133.44;111551;1201;64607;-82
2021/08/22 09:16:08;;;;;;;7.50;6.90;;;;;;;25.11;61.01;99131.74;111513;1202;61046;-81
2021/08/22 09:18:57;;;;;;;7.00;6.40;;;;;;;25.31;60.55;99135.73;111456;1201;63985;-82
2021/08/22 09:22:01;;;;;;;6.00;5.60;;;;;;;25.47;60.05;99136.31;111532;1196;61072;-81
2021/08/22 09:24:31;;;;;;;7.20;6.60;;;;;;;25.58;59.03;99131.85;111553;1195;60966;-83
2021/08/22 09:27:35;;;;;;;7.40;6.80;;;;;;;25.52;58.27;99132.98;111548;1200;66051;-82
2021/08/22 09:30:30;;;;;;;7.10;6.40;;;;;;;25.60;58.19;99131.88;111571;1197;60944;-82
2021/08/22 09:33:23;;;;;;;6.40;5.80;;;;;;;25.77;57.96;99132.06;111549;1200;63929;-83
2021/08/22 09:36:08;;;;;;;;;;;;;;;25.83;56.27;99133.51;111534;1195;61012;-83
2021/08/22 09:39:13;;;;;;;6.10;5.60;;;;;;;25.65;54.92;99124.52;111587;1195;61034;-84
2021/08/22 09:42:04;;;;;;;5.70;5.20;;;;;;;25.65;55.73;99129.34;111476;1200;65798;-84
2021/08/22 09:44:44;;;;;;;6.60;6.00;;;;;;;25.81;55.84;99126.22;111592;1201;60960;-83
2021/08/22 09:47:42;;;;;;;5.80;5.40;;;;;;;25.96;55.91;99130.23;111569;1196;63738;-81
2021/08/22 09:50:47;;;;;;;5.60;4.90;;;;;;;26.14;54.85;99130.64;111639;1201;61072;-83
2021/08/22 09:53:48;;;;;;;5.00;4.50;;;;;;;26.17;53.18;99125.66;111577;1193;60999;-82
2021/08/22 09:56:54;;;;;;;5.50;5.10;;;;;;;26.22;53.52;99124.30;111534;1201;65958;-83
2021/08/22 09:59:42;;;;;;;4.40;4.10;;;;;;;26.35;53.50;99122.48;111437;1202;61643;-83
2021/08/22 10:02:41;;;;;;;4.60;4.20;;;;;;;26.49;53.23;99116.06;111510;1201;63989;-82
2021/08/22 10:05:36;;;;;;;5.50;4.30;;;;;;;26.68;53.33;99106.63;111293;1200;61146;-82
2021/08/22 10:08:09;;;;;;;4.40;4.10;;;;;;;26.87;52.70;99110.65;111554;1199;61153;-82
2021/08/22 10:10:57;;;;;;;3.80;3.50;;;;;;;26.99;52.07;99107.58;111524;1200;64768;-80
2021/08/22 10:13:24;;;;;;;3.80;3.50;;;;;;;27.13;51.93;99105.55;111554;1202;61047;-80
2021/08/22 10:15:52;;;;;;;3.40;3.10;;;;;;;27.28;50.74;99103.59;111509;1200;63960;-81
2021/08/22 10:18:23;;;;;;;2.80;2.60;;;;;;;27.27;49.27;99102.74;111554;1197;61092;-80
2021/08/22 10:20:51;;;;;;;3.20;2.80;;;;;;;27.33;48.92;99100.98;111546;1193;61072;-80
2021/08/22 10:23:35;;;;;;;3.00;2.70;;;;;;;27.50;48.55;99096.33;111606;1200;65973;-80
2021/08/22 10:26:02;;;;;;;3.10;2.50;;;;;;;27.64;48.21;99094.27;111567;1201;61059;-81
2021/08/22 10:28:44;;;;;;;3.30;3.10;;;;;;;27.81;47.59;99090.91;111576;1201;63942;-81
2021/08/22 10:31:12;;;;;;;3.30;3.10;;;;;;;27.79;46.77;99084.75;111552;1200;61046;-80
2021/08/22 10:34:15;;;;;;;3.60;3.30;;;;;;;27.66;46.99;99082.13;111572;1193;60999;-80
2021/08/22 10:36:43;;;;;;;3.70;3.40;;;;;;;27.68;47.66;99080.58;111530;1200;66065;-80
2021/08/22 10:39:23;;;;;;;3.20;2.90;;;;;;;27.81;47.54;99081.56;111600;1201;60992;-81
2021/08/22 10:41:51;;;;;;;3.50;3.20;;;;;;;27.87;47.10;99086.40;111619;1200;62595;-80
2021/08/22 10:44:33;;;;;;;3.20;2.90;;;;;;;27.81;45.76;99086.66;112079;1200;61085;-81
2021/08/22 10:47:03;;;;;;;3.40;3.20;;;;;;;27.67;45.29;99085.29;111559;1192;61037;-81
2021/08/22 10:49:55;;;;;;;2.90;2.70;;;;;;;27.61;45.07;99085.98;111523;1200;65991;-81
2021/08/22 10:52:25;;;;;;;2.40;2.30;;;;;;;27.58;45.06;99086.65;111549;1201;60990;-83
2021/08/22 10:55:13;;;;;;;2.50;2.30;;;;;;;27.61;45.44;99086.30;111554;1202;62575;-83
2021/08/22 10:57:49;;;;;;;3.30;3.10;;;;;;;27.64;44.84;99086.55;111493;1200;61066;-83
2021/08/22 11:00:28;;;;;;;3.30;3.10;;;;;;;27.55;44.03;99088.75;111514;1200;61014;-82
2021/08/22 11:02:57;;;;;;;3.30;2.80;;;;;;;27.52;44.92;99092.38;111530;1202;65845;-82
2021/08/22 11:05:26;;;;;;;3.70;3.40;;;;;;;27.63;45.28;99092.20;111509;1200;60987;-82
2021/08/22 11:07:55;;;;;;;3.10;2.90;;;;;;;27.80;45.24;99090.77;111582;1200;63634;-82
2021/08/22 11:10:29;;;;;;;3.60;3.30;;;;;;;27.95;44.71;99095.08;111637;1200;61063;-82
2021/08/22 11:12:55;;;;;;;3.20;2.90;;;;;;;27.97;43.49;99095.13;111553;1195;61015;-82
2021/08/22 11:15:23;;;;;;;3.50;3.10;;;;;;;27.81;42.59;99097.34;111533;1200;65658;-81
2021/08/22 11:17:55;;;;;;;3.50;3.20;;;;;;;27.66;43.28;99093.94;111559;1200;60973;-81
2021/08/22 11:20:26;;;;;;;3.80;3.40;;;;;;;27.66;43.25;99088.91;111534;1201;63493;-81
2021/08/22 11:23:16;;;;;;;3.70;3.40;;;;;;;27.80;44.32;99088.25;111541;1199;61053;-81
2021/08/22 11:25:45;;;;;;;4.70;3.10;;;;;;;27.86;43.92;99085.40;111547;1196;61082;-81
2021/08/22 11:28:16;;;;;;;3.80;3.50;;;;;;;27.97;44.32;99084.58;111537;1201;66010;-80
2021/08/22 11:30:45;;;;;;;3.70;3.00;;;;;;;28.18;44.41;99086.56;111532;1202;61082;-81